Mount Dora, New Mexico
Current Conditions -  °F | °C
As of 12:55 AM on Saturday 01 Nov 2014 (Local Time) from KCAO Reporting Station
Clear Clear  
Wind Chill: 36°   Ceiling: Unl
Heat Index: 44°   Visibility: 10mi
Dew Point: 30°   Wind: 18mph
Humidity: 58%   Direction: 200°SSW
Pressure: 30.2"   Gusts: NA
Location:  36.51°N, 103.49°W
Report Text: KCAO 010655Z AUTO 20016KT 10SM CLR 07/M01 A3020 RMK AO2 SLP204 T00671011 401500000
Loading
Personal Weather Stations






























Interactive Weather Map
Tropical Storm Tracking
New forecast layout! Learn more

10-Day Weather Forecast

Advertisements
Track Severe Weather on mobile